Time;durP1;ratioP1;P1;durP2;ratioP2;P2;SDS_P1;SDS_P2;PMS_P1;PMS_P2;Temp;Humidity;BMP_temperature;BMP_pressure;BME280_temperature;BME280_humidity;BME280_pressure;Samples;Min_cycle;Max_cycle;Signal;HPM_P1;HPM_P2
2020/12/12 00:02:17;;;;;;;113.28;47.40;;;7.00;99.90;;;;;;5043509;28;20116;-36
2020/12/12 00:04:43;;;;;;;136.70;49.15;;;7.10;99.90;;;;;;5017117;28;20048;-37
2020/12/12 00:07:09;;;;;;;116.20;47.63;;;7.10;99.90;;;;;;5016621;28;20045;-37
2020/12/12 00:09:35;;;;;;;145.40;51.67;;;7.10;99.90;;;;;;5054470;28;20120;-40
2020/12/12 00:12:02;;;;;;;117.70;43.03;;;7.10;99.90;;;;;;5047433;28;20029;-38
2020/12/12 00:14:27;;;;;;;101.43;42.67;;;7.10;99.90;;;;;;5069162;28;20028;-38
2020/12/12 00:16:54;;;;;;;91.88;42.63;;;7.10;99.90;;;;;;5031662;28;20033;-41
2020/12/12 00:19:19;;;;;;;96.70;41.00;;;7.10;99.90;;;;;;5053381;28;20029;-40
2020/12/12 00:21:55;;;;;;;88.50;41.50;;;7.20;99.90;;;;;;5037574;28;20057;-37
2020/12/12 00:24:21;;;;;;;95.35;42.50;;;7.20;99.90;;;;;;5039894;28;20108;-42
2020/12/12 00:26:47;;;;;;;84.43;38.72;;;7.20;99.90;;;;;;5048736;28;20103;-44
2020/12/12 00:29:14;;;;;;;90.05;38.80;;;7.20;99.90;;;;;;5036568;28;20040;-39
2020/12/12 00:31:41;;;;;;;88.70;41.00;;;7.30;99.90;;;;;;5044991;28;20025;-38
2020/12/12 00:34:07;;;;;;;77.72;37.95;;;7.30;99.90;;;;;;5046868;28;20474;-39
2020/12/12 00:36:41;;;;;;;87.15;39.40;;;7.30;99.90;;;;;;5051569;28;20040;-37
2020/12/12 00:39:07;;;;;;;83.60;42.08;;;7.30;99.90;;;;;;5047568;28;20041;-37
2020/12/12 00:41:36;;;;;;;92.95;41.47;;;7.30;99.90;;;;;;5046674;28;20039;-40
2020/12/12 00:44:03;;;;;;;87.25;42.25;;;7.20;99.90;;;;;;5049315;28;20036;-40
2020/12/12 00:46:29;;;;;;;78.22;40.17;;;7.20;99.90;;;;;;5040519;28;20112;-37
2020/12/12 00:48:55;;;;;;;89.68;39.67;;;7.20;99.90;;;;;;5049585;28;20140;-39
2020/12/12 00:51:21;;;;;;;89.38;39.50;;;7.30;99.90;;;;;;5047834;28;20021;-37
2020/12/12 00:53:47;;;;;;;80.18;39.90;;;7.30;99.90;;;;;;5037119;28;20034;-39
2020/12/12 00:56:14;;;;;;;76.00;38.60;;;7.30;99.90;;;;;;5042697;28;20028;-39
2020/12/12 00:58:40;;;;;;;81.30;38.75;;;7.20;99.90;;;;;;5042164;28;20036;-41
2020/12/12 01:01:05;;;;;;;77.85;37.42;;;7.20;99.90;;;;;;5051035;28;20040;-41
2020/12/12 01:03:31;;;;;;;83.80;38.60;;;7.20;99.90;;;;;;5046949;28;20040;-37
2020/12/12 01:05:56;;;;;;;77.05;37.20;;;7.20;99.90;;;;;;5051401;28;20048;-37
2020/12/12 01:08:22;;;;;;;87.22;39.80;;;7.20;99.90;;;;;;5022540;28;20049;-37
2020/12/12 01:10:47;;;;;;;103.30;43.42;;;7.20;99.90;;;;;;5021281;28;20040;-36
2020/12/12 01:13:13;;;;;;;80.57;39.35;;;7.10;99.90;;;;;;5027958;28;20103;-36
2020/12/12 01:15:38;;;;;;;88.82;37.97;;;7.10;99.90;;;;;;5038916;28;20057;-37
2020/12/12 01:18:04;;;;;;;94.30;40.35;;;7.20;99.90;;;;;;5022164;28;20052;-36
2020/12/12 01:20:30;;;;;;;72.72;37.38;;;7.10;99.90;;;;;;5027731;28;20041;-37
2020/12/12 01:22:55;;;;;;;78.20;36.22;;;7.20;99.90;;;;;;5034979;28;20083;-37
2020/12/12 01:25:21;;;;;;;71.25;36.50;;;7.10;99.90;;;;;;5004011;28;20187;-40
2020/12/12 01:27:47;;;;;;;74.35;36.63;;;7.10;99.90;;;;;;5025151;28;20053;-39
2020/12/12 01:30:13;;;;;;;81.72;37.97;;;7.10;99.90;;;;;;5014679;28;20387;-37
2020/12/12 01:32:38;;;;;;;66.78;33.65;;;7.20;99.90;;;;;;5010971;28;20080;-36
2020/12/12 01:35:04;;;;;;;63.25;33.58;;;7.20;99.90;;;;;;5015461;28;20040;-36
2020/12/12 01:37:30;;;;;;;62.33;33.40;;;7.20;99.90;;;;;;5033621;28;20030;-42
2020/12/12 01:39:55;;;;;;;66.32;32.22;;;7.20;99.90;;;;;;5047878;28;20037;-38
2020/12/12 01:42:21;;;;;;;60.97;32.58;;;7.10;99.90;;;;;;5026853;28;20036;-36
2020/12/12 01:44:46;;;;;;;67.90;32.97;;;7.20;99.90;;;;;;5015205;28;20033;-37
2020/12/12 01:47:12;;;;;;;57.97;30.50;;;7.20;99.90;;;;;;5010310;28;20068;-37
2020/12/12 01:49:38;;;;;;;57.50;29.55;;;7.20;99.90;;;;;;5022499;28;20108;-36
2020/12/12 01:52:05;;;;;;;60.45;30.73;;;7.20;99.90;;;;;;5016794;28;20106;-37
2020/12/12 01:54:31;;;;;;;62.00;29.85;;;7.20;99.90;;;;;;5014034;28;20037;-38
2020/12/12 01:57:02;;;;;;;59.03;30.83;;;7.20;99.90;;;;;;5025516;28;20386;-36
2020/12/12 01:59:29;;;;;;;53.57;29.57;;;7.20;99.90;;;;;;5031207;28;20083;-36
2020/12/12 02:01:57;;;;;;;58.67;30.83;;;7.20;99.90;;;;;;5027332;28;20021;-38
2020/12/12 02:04:25;;;;;;;59.10;29.13;;;7.20;99.90;;;;;;5026989;28;20041;-41
2020/12/12 02:06:52;;;;;;;57.53;29.00;;;7.20;99.90;;;;;;5027458;28;20348;-37
2020/12/12 02:09:18;;;;;;;53.10;29.42;;;7.20;99.90;;;;;;5029792;28;20474;-37
2020/12/12 02:11:44;;;;;;;59.17;30.23;;;7.20;99.90;;;;;;5015358;28;20041;-37
2020/12/12 02:14:11;;;;;;;57.78;30.33;;;7.20;99.90;;;;;;4996282;28;20492;-36
2020/12/12 02:16:57;;;;;;;54.20;32.70;;;7.20;99.90;;;;;;5047689;28;20111;-37
2020/12/12 02:19:23;;;;;;;66.07;30.15;;;7.20;99.90;;;;;;4995380;28;20504;-38
2020/12/12 02:21:56;;;;;;;63.75;33.85;;;7.20;99.90;;;;;;5030795;28;20072;-43
2020/12/12 02:24:22;;;;;;;69.25;31.42;;;7.20;99.90;;;;;;5029907;28;20025;-40
2020/12/12 02:26:49;;;;;;;60.55;31.77;;;7.20;99.90;;;;;;5030977;28;20119;-37
2020/12/12 02:29:14;;;;;;;64.70;31.35;;;7.20;99.90;;;;;;5020645;28;20044;-36
2020/12/12 02:31:41;;;;;;;56.78;30.02;;;7.20;99.90;;;;;;5021089;28;20029;-37
2020/12/12 02:34:06;;;;;;;56.05;30.48;;;7.20;99.90;;;;;;5012672;28;20109;-38
2020/12/12 02:36:39;;;;;;;60.55;29.23;;;7.20;99.90;;;;;;5029771;28;20115;-37
2020/12/12 02:39:08;;;;;;;59.92;31.63;;;7.20;99.90;;;;;;5030859;28;20048;-40
2020/12/12 02:41:35;;;;;;;52.00;28.50;;;7.20;99.90;;;;;;5008915;28;20396;-39
2020/12/12 02:44:01;;;;;;;57.50;28.42;;;7.10;99.90;;;;;;5027100;28;20030;-36
2020/12/12 02:46:26;;;;;;;60.38;28.38;;;7.10;99.90;;;;;;5009851;28;20108;-36
2020/12/12 02:48:52;;;;;;;55.25;29.17;;;7.10;99.90;;;;;;5011495;28;20037;-36
2020/12/12 02:51:18;;;;;;;62.00;29.33;;;7.10;99.90;;;;;;5022735;28;20067;-37
2020/12/12 02:53:44;;;;;;;63.38;29.60;;;7.10;99.90;;;;;;5015660;28;20038;-36
2020/12/12 02:56:13;;;;;;;56.42;29.50;;;7.10;99.90;;;;;;5014939;28;20100;-37
2020/12/12 02:58:38;;;;;;;61.35;27.80;;;7.10;99.90;;;;;;5035352;28;20033;-36
2020/12/12 03:01:04;;;;;;;67.00;29.67;;;7.10;99.90;;;;;;5014290;28;20115;-36
2020/12/12 03:03:31;;;;;;;60.08;32.33;;;7.10;99.90;;;;;;5027870;28;20049;-37
2020/12/12 03:05:56;;;;;;;62.75;30.13;;;7.10;99.90;;;;;;5048925;28;20091;-37
2020/12/12 03:08:22;;;;;;;65.97;28.58;;;7.20;99.90;;;;;;5050954;28;20025;-36
2020/12/12 03:10:47;;;;;;;59.83;30.13;;;7.20;99.90;;;;;;5043991;28;20034;-36
2020/12/12 03:13:13;;;;;;;57.58;31.83;;;7.20;99.90;;;;;;5047732;28;20040;-35
2020/12/12 03:15:39;;;;;;;69.63;31.48;;;7.20;99.90;;;;;;5043656;28;20029;-36
2020/12/12 03:18:04;;;;;;;63.65;31.45;;;7.20;99.90;;;;;;5033734;28;20025;-37
2020/12/12 03:20:30;;;;;;;70.10;32.35;;;7.20;99.90;;;;;;5045174;28;20124;-36
2020/12/12 03:22:55;;;;;;;72.45;31.85;;;7.20;99.90;;;;;;5041764;28;20038;-38
2020/12/12 03:25:21;;;;;;;73.85;30.52;;;7.20;99.90;;;;;;5031128;28;20029;-37
2020/12/12 03:27:46;;;;;;;79.88;31.45;;;7.20;99.90;;;;;;5035828;28;20032;-37
2020/12/12 03:30:12;;;;;;;68.65;32.13;;;7.20;99.90;;;;;;5047168;28;20037;-37
2020/12/12 03:32:37;;;;;;;74.93;35.90;;;7.20;99.90;;;;;;5046935;28;20029;-37
2020/12/12 03:35:03;;;;;;;69.47;34.45;;;7.20;99.90;;;;;;5022693;28;20088;-37
2020/12/12 03:37:29;;;;;;;79.47;33.22;;;7.20;99.90;;;;;;5050036;28;20055;-37
2020/12/12 03:39:54;;;;;;;73.28;33.95;;;7.20;99.90;;;;;;5049667;28;20127;-37
2020/12/12 03:42:20;;;;;;;73.95;34.20;;;7.20;99.90;;;;;;5041713;28;20135;-37
2020/12/12 03:44:45;;;;;;;92.25;32.55;;;7.20;99.90;;;;;;5038916;28;20121;-36
2020/12/12 03:47:11;;;;;;;87.88;33.88;;;7.20;99.90;;;;;;5046539;28;20025;-37
2020/12/12 03:49:37;;;;;;;94.97;36.97;;;7.20;99.90;;;;;;5035689;28;20112;-37
2020/12/12 03:52:03;;;;;;;85.75;34.42;;;7.20;99.90;;;;;;5042821;28;20036;-36
2020/12/12 03:54:28;;;;;;;123.63;41.42;;;7.10;99.90;;;;;;5054384;28;20029;-37
2020/12/12 03:56:54;;;;;;;77.75;37.08;;;7.10;99.90;;;;;;5051881;28;20550;-36
2020/12/12 03:59:20;;;;;;;87.43;37.10;;;7.10;99.90;;;;;;5051848;28;20132;-37
2020/12/12 04:01:46;;;;;;;84.32;33.38;;;7.10;99.90;;;;;;5052508;28;20364;-36
2020/12/12 04:04:11;;;;;;;79.05;32.65;;;7.10;99.90;;;;;;5039184;28;20464;-35
2020/12/12 04:06:37;;;;;;;82.22;33.00;;;7.10;99.90;;;;;;5028248;28;20025;-36
2020/12/12 04:09:03;;;;;;;78.28;32.33;;;7.10;99.90;;;;;;5050933;28;20033;-36
2020/12/12 04:11:29;;;;;;;72.97;30.58;;;7.10;99.90;;;;;;5019678;28;20034;-36
2020/12/12 04:13:54;;;;;;;63.67;30.40;;;7.20;99.90;;;;;;5010034;28;20044;-36
2020/12/12 04:16:20;;;;;;;88.03;35.00;;;7.20;99.90;;;;;;5037956;28;20025;-36
2020/12/12 04:18:46;;;;;;;65.07;30.98;;;7.20;99.90;;;;;;5046397;28;20107;-36
2020/12/12 04:21:12;;;;;;;90.57;30.45;;;7.20;99.90;;;;;;5022082;28;20441;-37
2020/12/12 04:23:43;;;;;;;72.97;25.25;;;7.20;99.90;;;;;;5030916;28;20029;-36
2020/12/12 04:26:10;;;;;;;85.00;32.55;;;7.20;99.90;;;;;;5014719;28;20064;-36
2020/12/12 04:28:36;;;;;;;77.47;30.00;;;7.10;99.90;;;;;;5016049;28;20038;-36
2020/12/12 04:31:01;;;;;;;76.13;28.08;;;7.10;99.90;;;;;;5026868;28;20029;-37
2020/12/12 04:33:28;;;;;;;141.45;34.97;;;7.10;99.90;;;;;;5030669;28;20033;-36
2020/12/12 04:35:54;;;;;;;70.93;28.08;;;7.10;99.90;;;;;;5028035;28;20033;-36
2020/12/12 04:38:20;;;;;;;69.70;30.75;;;7.10;99.90;;;;;;5013718;28;20382;-37
2020/12/12 04:40:46;;;;;;;66.32;27.05;;;7.10;99.90;;;;;;5014145;28;20057;-37
2020/12/12 04:43:12;;;;;;;57.03;26.52;;;7.10;99.90;;;;;;5035327;28;20030;-36
2020/12/12 04:45:42;;;;;;;64.65;27.60;;;7.10;99.90;;;;;;5028559;28;20033;-36
2020/12/12 04:48:07;;;;;;;70.70;27.40;;;7.10;99.90;;;;;;5033645;28;20025;-36
2020/12/12 04:50:33;;;;;;;62.15;27.25;;;7.10;99.90;;;;;;5031413;28;20036;-38
2020/12/12 04:53:20;;;;;;;75.13;25.70;;;7.10;99.90;;;;;;5038083;28;20041;-36
2020/12/12 04:55:47;;;;;;;64.53;26.67;;;7.00;99.90;;;;;;5015774;28;20399;-37
2020/12/12 04:58:23;;;;;;;62.38;26.35;;;7.00;99.90;;;;;;5015156;28;20057;-36
2020/12/12 05:00:50;;;;;;;64.15;25.73;;;7.00;99.90;;;;;;5032992;28;20026;-36
2020/12/12 05:03:18;;;;;;;53.65;26.00;;;7.00;99.90;;;;;;5036533;28;20037;-36
2020/12/12 05:05:44;;;;;;;62.65;26.17;;;6.90;99.90;;;;;;5032519;28;20119;-37
2020/12/12 05:08:10;;;;;;;61.40;28.15;;;6.90;99.90;;;;;;5051338;28;20648;-37
2020/12/12 05:10:44;;;;;;;57.47;26.70;;;6.90;99.90;;;;;;5040454;28;20029;-36
2020/12/12 05:13:18;;;;;;;59.97;25.88;;;6.90;99.90;;;;;;5038964;28;20038;-36
2020/12/12 05:15:45;;;;;;;55.10;25.20;;;6.90;99.90;;;;;;5050360;28;20029;-36
2020/12/12 05:18:10;;;;;;;69.03;26.77;;;6.90;99.90;;;;;;5052877;28;20029;-36
2020/12/12 05:20:37;;;;;;;56.25;26.90;;;6.90;99.90;;;;;;5031507;28;20090;-36
2020/12/12 05:23:17;;;;;;;66.70;26.35;;;7.00;99.90;;;;;;5047418;28;20033;-35
2020/12/12 05:25:45;;;;;;;55.38;25.33;;;6.90;99.90;;;;;;5048249;28;20055;-36
2020/12/12 05:28:13;;;;;;;58.72;29.52;;;6.90;99.90;;;;;;5052043;28;20025;-35
2020/12/12 05:30:41;;;;;;;60.13;27.95;;;6.90;99.90;;;;;;5052803;28;20021;-36
2020/12/12 05:33:08;;;;;;;57.17;27.77;;;6.90;99.90;;;;;;5051784;28;20024;-37
2020/12/12 05:35:34;;;;;;;64.95;30.00;;;6.90;99.90;;;;;;5033454;28;20059;-35
2020/12/12 05:38:02;;;;;;;64.18;29.15;;;6.90;99.90;;;;;;5048536;28;20029;-36
2020/12/12 05:40:27;;;;;;;67.35;30.88;;;6.90;99.90;;;;;;5044956;28;20108;-35
2020/12/12 05:42:53;;;;;;;57.90;29.30;;;7.00;99.90;;;;;;5043631;28;20128;-36
2020/12/12 05:45:19;;;;;;;59.67;26.90;;;6.90;99.90;;;;;;5040871;28;20469;-35
2020/12/12 05:47:45;;;;;;;61.45;26.98;;;6.90;99.90;;;;;;5048075;28;20080;-36
2020/12/12 05:50:11;;;;;;;58.25;26.88;;;6.90;99.90;;;;;;5033102;28;20035;-36
2020/12/12 05:52:41;;;;;;;55.25;26.17;;;7.00;99.90;;;;;;5045751;28;20092;-36
2020/12/12 05:55:08;;;;;;;74.45;31.85;;;6.90;99.90;;;;;;5052494;28;20029;-36
2020/12/12 05:57:36;;;;;;;53.88;27.38;;;6.90;99.90;;;;;;5045323;28;20037;-36
2020/12/12 06:00:04;;;;;;;55.25;27.95;;;6.90;99.90;;;;;;5038934;28;20143;-36
2020/12/12 06:02:35;;;;;;;54.60;26.75;;;6.90;99.90;;;;;;5051197;28;20385;-36
2020/12/12 06:05:05;;;;;;;55.55;25.55;;;6.80;99.90;;;;;;5051546;28;20080;-36
2020/12/12 06:07:33;;;;;;;54.05;24.23;;;6.90;99.90;;;;;;5045368;28;20164;-36
2020/12/12 06:10:02;;;;;;;47.88;23.23;;;6.90;99.90;;;;;;5044217;28;20030;-36
2020/12/12 06:12:29;;;;;;;50.45;24.25;;;6.80;99.90;;;;;;5046563;28;20473;-37
2020/12/12 06:14:57;;;;;;;45.70;24.88;;;6.80;99.90;;;;;;5032397;28;20048;-39
2020/12/12 06:17:43;;;;;;;49.17;23.73;;;6.80;99.90;;;;;;5044076;28;20029;-37
2020/12/12 06:20:14;;;;;;;50.92;25.17;;;6.80;99.90;;;;;;5032148;28;20056;-37
2020/12/12 06:22:45;;;;;;;54.55;24.85;;;6.70;99.90;;;;;;5041110;28;20022;-37
2020/12/12 06:25:14;;;;;;;49.60;23.58;;;6.70;99.90;;;;;;5020018;28;20053;-37
2020/12/12 06:27:47;;;;;;;46.38;23.15;;;6.80;99.90;;;;;;5033591;28;20029;-37
2020/12/12 06:30:13;;;;;;;49.60;22.90;;;6.70;99.90;;;;;;5032315;28;20464;-36
2020/12/12 06:32:41;;;;;;;47.97;22.23;;;6.80;99.90;;;;;;5043058;28;20393;-36
2020/12/12 06:35:07;;;;;;;43.45;20.60;;;6.80;99.90;;;;;;5048998;28;20039;-36
2020/12/12 06:37:35;;;;;;;41.03;19.75;;;6.80;99.90;;;;;;5051018;28;20036;-36
2020/12/12 06:40:04;;;;;;;51.45;21.60;;;6.80;99.90;;;;;;5034538;28;20531;-37
2020/12/12 06:42:39;;;;;;;47.08;20.63;;;6.80;99.90;;;;;;5037878;28;20033;-37
2020/12/12 06:45:17;;;;;;;43.83;20.70;;;6.80;99.90;;;;;;5044991;28;20040;-36
2020/12/12 06:47:45;;;;;;;41.90;20.00;;;6.90;99.90;;;;;;5049346;28;20035;-36
2020/12/12 06:50:23;;;;;;;37.53;18.27;;;6.80;99.90;;;;;;5032035;28;20038;-36
2020/12/12 06:52:50;;;;;;;39.85;18.55;;;6.90;99.90;;;;;;5045464;28;20021;-35
2020/12/12 06:55:17;;;;;;;41.15;19.98;;;6.90;99.90;;;;;;5051470;28;20033;-36
2020/12/12 06:57:47;;;;;;;50.83;20.77;;;6.90;99.90;;;;;;5050008;28;20064;-36
2020/12/12 07:00:31;;;;;;;39.45;20.00;;;6.90;99.90;;;;;;5049433;28;20031;-36
2020/12/12 07:03:00;;;;;;;47.20;22.40;;;6.80;99.90;;;;;;5043525;28;20078;-36
2020/12/12 07:05:29;;;;;;;45.25;19.95;;;6.80;99.90;;;;;;5048674;28;20082;-36
2020/12/12 07:08:09;;;;;;;36.83;18.55;;;6.70;99.90;;;;;;5032407;28;20160;-36
2020/12/12 07:10:40;;;;;;;40.13;18.75;;;6.80;99.90;;;;;;5031397;28;20033;-37
2020/12/12 07:13:07;;;;;;;43.15;20.55;;;6.80;99.90;;;;;;5029025;28;20398;-37
2020/12/12 07:15:36;;;;;;;47.15;21.23;;;6.70;99.90;;;;;;5024151;28;20037;-36
2020/12/12 07:18:05;;;;;;;40.85;18.88;;;6.80;99.90;;;;;;5020695;28;20415;-37
2020/12/12 07:20:33;;;;;;;37.47;18.73;;;6.80;99.90;;;;;;5028173;28;20034;-36
2020/12/12 07:23:04;;;;;;;39.33;18.92;;;6.80;99.90;;;;;;5022339;28;20497;-35
2020/12/12 07:25:33;;;;;;;40.03;18.38;;;6.80;99.90;;;;;;5043655;28;20060;-36
2020/12/12 07:28:00;;;;;;;37.67;19.30;;;6.90;99.90;;;;;;5038642;28;20033;-36
2020/12/12 07:30:25;;;;;;;43.55;20.02;;;6.90;99.90;;;;;;5023085;28;20041;-36
2020/12/12 07:32:51;;;;;;;42.38;18.88;;;6.90;99.90;;;;;;5015255;28;20389;-36
2020/12/12 07:35:17;;;;;;;38.60;17.00;;;6.90;99.90;;;;;;5022985;28;20387;-37
2020/12/12 07:37:42;;;;;;;44.47;19.90;;;6.90;99.90;;;;;;5016512;28;20128;-39
2020/12/12 07:40:08;;;;;;;42.42;19.00;;;6.90;99.90;;;;;;5019823;28;20046;-41
2020/12/12 07:42:35;;;;;;;44.65;18.35;;;6.80;99.90;;;;;;5029312;28;20034;-37
2020/12/12 07:47:34;;;;;;;67.35;21.55;;;6.80;99.90;;;;;;5029200;28;20390;-40
2020/12/12 07:50:01;;;;;;;40.75;18.23;;;6.80;99.90;;;;;;5034363;28;20025;-38
2020/12/12 07:52:28;;;;;;;41.50;17.83;;;6.90;99.90;;;;;;5008985;28;20446;-38
2020/12/12 07:55:01;;;;;;;40.15;18.25;;;6.90;99.90;;;;;;5015868;28;20111;-39
2020/12/12 07:57:26;;;;;;;40.88;19.60;;;6.90;99.90;;;;;;5049364;28;20060;-37
2020/12/12 08:00:03;;;;;;;40.17;18.73;;;6.90;99.90;;;;;;5019767;28;20033;-40
2020/12/12 08:02:29;;;;;;;51.58;19.75;;;6.90;99.90;;;;;;5034759;28;20068;-40
2020/12/12 08:05:00;;;;;;;45.72;17.58;;;6.90;99.90;;;;;;5047802;28;20045;-40
2020/12/12 08:07:29;;;;;;;53.60;20.75;;;6.90;99.90;;;;;;5035812;28;20484;-38
2020/12/12 08:09:55;;;;;;;55.78;23.50;;;6.90;99.90;;;;;;5046007;28;20029;-38
2020/12/12 08:12:29;;;;;;;62.38;21.98;;;7.00;99.90;;;;;;5048589;28;20364;-37
2020/12/12 08:14:57;;;;;;;44.03;18.80;;;7.00;99.90;;;;;;5039809;28;20029;-36
2020/12/12 08:17:31;;;;;;;40.55;18.27;;;7.10;99.90;;;;;;5045590;28;20048;-39
2020/12/12 08:19:56;;;;;;;52.28;18.85;;;7.10;99.90;;;;;;5026062;28;20116;-38
2020/12/12 08:22:25;;;;;;;46.03;18.45;;;7.10;99.90;;;;;;5061105;28;20119;-42
2020/12/12 08:24:51;;;;;;;53.25;18.63;;;7.10;99.90;;;;;;5041765;28;20374;-41
2020/12/12 08:27:23;;;;;;;42.38;16.90;;;7.20;99.90;;;;;;5033989;28;20037;-37
2020/12/12 08:29:57;;;;;;;43.97;18.27;;;7.20;99.90;;;;;;5039773;28;20116;-38
2020/12/12 08:32:38;;;;;;;46.05;18.92;;;7.30;99.90;;;;;;5033969;28;20437;-40
2020/12/12 08:35:36;;;;;;;47.38;18.55;;;7.30;99.90;;;;;;5042480;28;20027;-37
2020/12/12 08:38:06;;;;;;;44.75;18.55;;;7.40;99.90;;;;;;5009489;28;20045;-36
2020/12/12 08:40:47;;;;;;;43.00;18.63;;;7.40;99.90;;;;;;5007059;28;20534;-36
2020/12/12 08:43:14;;;;;;;45.08;17.73;;;7.50;99.90;;;;;;4988882;28;20054;-36
2020/12/12 08:45:41;;;;;;;38.90;17.45;;;7.50;99.90;;;;;;5008745;28;20094;-36
2020/12/12 08:48:12;;;;;;;52.95;20.67;;;7.50;99.90;;;;;;5011485;28;20403;-36
2020/12/12 08:50:58;;;;;;;46.22;20.15;;;7.60;99.90;;;;;;5006858;28;20548;-37
2020/12/12 08:53:33;;;;;;;43.95;19.63;;;7.60;99.90;;;;;;4991726;28;20038;-36
2020/12/12 08:56:14;;;;;;;51.78;18.75;;;7.70;99.90;;;;;;4992119;28;20557;-37
2020/12/12 08:58:40;;;;;;;48.28;17.42;;;7.80;99.90;;;;;;4995482;28;20073;-36
2020/12/12 09:01:18;;;;;;;57.15;18.40;;;7.90;99.90;;;;;;5005301;28;20448;-38
2020/12/12 09:03:58;;;;;;;45.88;19.92;;;8.00;99.90;;;;;;4993862;28;20061;-36
2020/12/12 09:06:25;;;;;;;47.10;17.80;;;8.10;99.90;;;;;;4990953;28;20047;-37
2020/12/12 09:09:12;;;;;;;51.28;18.77;;;8.20;99.90;;;;;;4975981;28;20073;-36
2020/12/12 09:11:39;;;;;;;49.58;18.33;;;8.30;99.90;;;;;;4990452;28;20480;-36
2020/12/12 09:14:05;;;;;;;47.75;19.50;;;8.30;99.90;;;;;;5010161;28;20421;-36
2020/12/12 09:16:31;;;;;;;49.90;20.73;;;8.30;99.90;;;;;;5014070;28;20033;-38
2020/12/12 09:18:57;;;;;;;51.90;19.67;;;8.40;99.90;;;;;;5022388;28;20562;-36
2020/12/12 09:21:24;;;;;;;59.80;19.90;;;8.50;99.90;;;;;;5032928;28;20485;-37
2020/12/12 09:23:49;;;;;;;56.78;19.85;;;8.60;99.90;;;;;;5005074;28;20091;-36
2020/12/12 09:26:15;;;;;;;50.28;18.88;;;8.60;99.90;;;;;;5032911;28;20121;-35
2020/12/12 09:28:41;;;;;;;51.10;19.25;;;8.60;99.90;;;;;;5015304;28;20038;-35
2020/12/12 09:31:07;;;;;;;47.70;18.60;;;8.70;99.90;;;;;;5032849;28;20497;-38
2020/12/12 09:33:34;;;;;;;50.35;20.52;;;8.70;99.90;;;;;;5021372;28;20393;-37
2020/12/12 09:36:02;;;;;;;54.70;20.77;;;8.70;99.90;;;;;;5022718;28;20127;-36
2020/12/12 09:38:27;;;;;;;50.13;19.85;;;8.70;99.90;;;;;;5033007;28;20061;-36
2020/12/12 09:40:53;;;;;;;58.83;22.67;;;8.70;99.90;;;;;;5031775;28;20068;-37
2020/12/12 09:43:19;;;;;;;53.90;19.55;;;8.70;99.90;;;;;;5016027;28;20038;-37
2020/12/12 09:45:46;;;;;;;50.75;20.17;;;8.70;99.90;;;;;;5012283;28;20486;-37
2020/12/12 09:48:13;;;;;;;51.88;18.08;;;8.70;99.90;;;;;;5013075;28;20034;-35
2020/12/12 09:50:39;;;;;;;46.28;17.23;;;8.80;99.90;;;;;;5012073;28;20045;-37
2020/12/12 09:53:07;;;;;;;52.95;18.38;;;8.80;99.90;;;;;;5025755;28;20025;-37
2020/12/12 09:55:34;;;;;;;46.33;17.40;;;8.80;99.90;;;;;;5032007;28;20060;-37
2020/12/12 09:58:00;;;;;;;59.13;18.73;;;8.80;99.90;;;;;;5015007;28;20034;-36
2020/12/12 10:00:26;;;;;;;55.08;17.80;;;8.80;99.90;;;;;;5032170;28;20040;-38
2020/12/12 10:02:52;;;;;;;49.55;17.80;;;8.90;99.90;;;;;;5028623;28;20075;-38
2020/12/12 10:05:18;;;;;;;47.53;16.80;;;8.90;99.90;;;;;;5049272;28;20049;-37
2020/12/12 10:07:44;;;;;;;55.47;18.83;;;8.90;99.90;;;;;;5034365;28;20029;-36
2020/12/12 10:10:10;;;;;;;46.28;16.45;;;8.90;99.90;;;;;;5039985;28;20033;-37
2020/12/12 10:12:35;;;;;;;46.63;18.00;;;8.90;99.90;;;;;;5032563;28;20033;-37
2020/12/12 10:15:02;;;;;;;60.50;18.65;;;8.90;99.90;;;;;;5032253;28;20029;-37
2020/12/12 10:17:29;;;;;;;36.95;16.33;;;8.90;99.90;;;;;;5050232;28;20025;-37
2020/12/12 10:19:55;;;;;;;50.63;16.88;;;9.00;99.90;;;;;;5045908;28;20047;-37
2020/12/12 10:22:21;;;;;;;47.20;17.73;;;8.90;99.90;;;;;;5049781;28;20037;-35
2020/12/12 10:24:46;;;;;;;43.33;17.00;;;9.00;99.90;;;;;;5035811;28;20036;-36
2020/12/12 10:27:12;;;;;;;47.47;18.13;;;9.00;99.90;;;;;;5039043;28;20041;-36
2020/12/12 10:29:37;;;;;;;48.15;18.25;;;9.00;99.90;;;;;;5034279;28;20033;-36
2020/12/12 10:32:03;;;;;;;35.90;14.55;;;9.00;99.90;;;;;;5051965;28;20044;-37
2020/12/12 10:34:29;;;;;;;44.40;16.77;;;9.00;99.90;;;;;;5033141;28;20033;-36
2020/12/12 10:36:55;;;;;;;41.72;17.17;;;9.00;99.90;;;;;;5050701;28;20139;-36
2020/12/12 10:40:10;;;;;;;39.90;17.20;;;9.10;99.90;;;;;;5050774;28;20049;-36
2020/12/12 10:42:09;;;;;;;42.10;16.40;;;9.00;99.90;;;;;;5034641;28;20033;-36
2020/12/12 10:44:35;;;;;;;43.65;17.20;;;9.10;99.90;;;;;;5047006;28;20025;-39
2020/12/12 10:47:00;;;;;;;41.47;16.23;;;9.10;99.90;;;;;;5041963;28;20030;-37
2020/12/12 10:49:26;;;;;;;46.88;18.27;;;9.00;99.90;;;;;;5045878;28;20465;-37
2020/12/12 10:51:55;;;;;;;40.45;16.50;;;9.10;99.90;;;;;;5050289;28;20103;-36
2020/12/12 10:54:21;;;;;;;43.08;17.00;;;9.00;99.90;;;;;;5048914;28;20466;-36
2020/12/12 10:56:47;;;;;;;46.42;15.00;;;9.10;99.90;;;;;;5047226;28;20036;-36
2020/12/12 10:59:13;;;;;;;42.20;17.08;;;9.10;99.90;;;;;;5055470;28;20029;-36
2020/12/12 11:01:39;;;;;;;44.72;17.05;;;9.10;99.90;;;;;;5055556;28;20033;-37
2020/12/12 11:04:05;;;;;;;34.83;15.63;;;9.10;99.90;;;;;;5053067;28;20512;-36
2020/12/12 11:06:34;;;;;;;34.95;14.73;;;9.10;99.90;;;;;;5037938;28;20026;-36
2020/12/12 11:09:01;;;;;;;37.20;14.63;;;9.20;99.90;;;;;;5028325;28;20711;-36
2020/12/12 11:11:26;;;;;;;38.13;13.30;;;9.20;99.90;;;;;;5034339;28;20029;-37
2020/12/12 11:13:53;;;;;;;35.00;14.75;;;9.20;99.90;;;;;;5016387;28;20033;-37
2020/12/12 11:16:20;;;;;;;33.47;14.30;;;9.20;99.90;;;;;;5030957;28;20025;-36
2020/12/12 11:18:51;;;;;;;39.60;12.95;;;9.20;99.90;;;;;;5031632;28;20053;-35
2020/12/12 11:21:20;;;;;;;36.35;14.77;;;9.20;99.90;;;;;;5014611;28;20548;-36
2020/12/12 11:23:46;;;;;;;37.95;14.73;;;9.30;99.90;;;;;;5030385;28;20482;-36
2020/12/12 11:26:12;;;;;;;32.00;13.15;;;9.30;99.90;;;;;;5022887;28;20108;-37
2020/12/12 11:28:40;;;;;;;30.67;13.02;;;9.30;99.90;;;;;;5034032;28;20057;-37
2020/12/12 11:31:06;;;;;;;30.42;12.32;;;9.30;99.90;;;;;;5034258;28;20721;-36
2020/12/12 11:33:35;;;;;;;33.47;13.10;;;9.30;99.90;;;;;;5032837;28;20025;-36
2020/12/12 11:44:15;;;;;;;31.23;13.15;;;9.30;99.90;;;;;;5033667;28;20026;-36
2020/12/12 11:46:39;;;;;;;26.25;11.43;;;9.30;99.90;;;;;;5024386;28;20037;-36
2020/12/12 11:49:07;;;;;;;26.23;10.80;;;9.40;99.90;;;;;;5033246;28;20037;-36
2020/12/12 11:51:37;;;;;;;27.83;12.15;;;9.30;99.90;;;;;;5032981;28;20743;-37
2020/12/12 11:54:03;;;;;;;33.20;11.88;;;9.40;99.90;;;;;;5033548;28;20033;-36
2020/12/12 11:56:28;;;;;;;23.98;12.02;;;9.40;99.90;;;;;;5027411;28;20069;-36
2020/12/12 11:58:55;;;;;;;27.83;12.52;;;9.40;99.90;;;;;;5001041;28;20065;-37
2020/12/12 12:01:22;;;;;;;32.85;11.98;;;9.30;99.90;;;;;;4996649;28;20048;-36
2020/12/12 12:03:50;;;;;;;30.20;10.95;;;9.40;99.90;;;;;;5023104;28;20136;-36
2020/12/12 12:06:16;;;;;;;32.92;12.27;;;9.30;99.90;;;;;;5034829;28;20056;-36
2020/12/12 12:11:42;;;;;;;37.42;13.10;;;9.30;99.90;;;;;;5011547;28;20491;-37
2020/12/12 12:14:10;;;;;;;37.20;13.15;;;9.30;99.90;;;;;;5011531;28;20084;-36
2020/12/12 12:16:41;;;;;;;33.60;12.48;;;9.30;99.90;;;;;;4989495;28;20069;-36
2020/12/12 12:19:17;;;;;;;39.08;11.63;;;9.30;99.90;;;;;;5010921;28;20120;-36
2020/12/12 12:21:46;;;;;;;39.25;12.68;;;9.30;99.90;;;;;;5009167;28;20136;-36
2020/12/12 12:24:15;;;;;;;38.72;14.95;;;9.30;99.90;;;;;;5003900;28;20038;-36
2020/12/12 12:26:41;;;;;;;32.45;11.90;;;9.30;99.90;;;;;;5003970;28;20038;-35
2020/12/12 12:29:13;;;;;;;34.67;11.75;;;9.30;99.90;;;;;;4994268;28;20129;-36
2020/12/12 12:31:44;;;;;;;39.08;12.10;;;9.20;99.90;;;;;;5010770;28;20030;-35
2020/12/12 12:34:11;;;;;;;37.58;12.35;;;9.30;99.90;;;;;;5010030;28;20037;-36
2020/12/12 12:36:38;;;;;;;31.75;13.13;;;9.30;99.90;;;;;;4987332;28;20029;-36
2020/12/12 12:39:06;;;;;;;34.53;12.20;;;9.30;99.90;;;;;;5007973;28;20133;-37
2020/12/12 12:41:31;;;;;;;36.55;12.18;;;9.30;99.90;;;;;;5005585;28;20038;-35
2020/12/12 12:44:01;;;;;;;29.10;11.40;;;9.30;99.90;;;;;;5008992;28;20058;-36
2020/12/12 12:46:28;;;;;;;46.00;12.95;;;9.30;99.90;;;;;;5017808;28;20036;-36
2020/12/12 12:48:54;;;;;;;27.35;10.57;;;9.30;99.90;;;;;;5047340;28;20051;-36
2020/12/12 12:51:19;;;;;;;34.00;12.80;;;9.30;99.90;;;;;;5052482;28;20025;-36
2020/12/12 12:53:45;;;;;;;33.35;13.20;;;9.30;99.90;;;;;;5051867;28;20020;-36